sensor_id;sensor_type;location;lat;lon;timestamp;P1;durP1;ratioP1;P2;durP2;ratioP2
17696;SDS011;8967;47.984;7.842;2023-05-07T00:01:49;4.70;;;2.38;;
17696;SDS011;8967;47.984;7.842;2023-05-07T00:04:17;3.75;;;2.28;;
17696;SDS011;8967;47.984;7.842;2023-05-07T00:06:43;2.97;;;2.20;;
17696;SDS011;8967;47.984;7.842;2023-05-07T00:09:10;2.47;;;2.28;;
17696;SDS011;8967;47.984;7.842;2023-05-07T00:11:37;3.50;;;2.65;;
17696;SDS011;8967;47.984;7.842;2023-05-07T00:14:05;2.38;;;2.00;;
17696;SDS011;8967;47.984;7.842;2023-05-07T00:16:32;5.43;;;2.30;;
17696;SDS011;8967;47.984;7.842;2023-05-07T00:18:59;3.60;;;1.90;;
17696;SDS011;8967;47.984;7.842;2023-05-07T00:21:26;4.00;;;2.55;;
17696;SDS011;8967;47.984;7.842;2023-05-07T00:23:53;4.07;;;2.38;;
17696;SDS011;8967;47.984;7.842;2023-05-07T00:26:20;4.25;;;2.60;;
17696;SDS011;8967;47.984;7.842;2023-05-07T00:28:49;2.78;;;2.55;;
17696;SDS011;8967;47.984;7.842;2023-05-07T00:31:17;6.28;;;2.08;;
17696;SDS011;8967;47.984;7.842;2023-05-07T00:33:46;2.78;;;1.92;;
17696;SDS011;8967;47.984;7.842;2023-05-07T00:36:13;3.38;;;1.98;;
17696;SDS011;8967;47.984;7.842;2023-05-07T00:38:42;1.77;;;1.67;;
17696;SDS011;8967;47.984;7.842;2023-05-07T00:41:09;2.50;;;1.67;;
17696;SDS011;8967;47.984;7.842;2023-05-07T00:43:36;3.20;;;1.85;;
17696;SDS011;8967;47.984;7.842;2023-05-07T00:46:03;4.63;;;2.25;;
17696;SDS011;8967;47.984;7.842;2023-05-07T00:48:32;3.40;;;2.22;;
17696;SDS011;8967;47.984;7.842;2023-05-07T00:50:59;2.67;;;1.77;;
17696;SDS011;8967;47.984;7.842;2023-05-07T00:53:28;6.10;;;2.58;;
17696;SDS011;8967;47.984;7.842;2023-05-07T00:55:56;2.60;;;2.40;;
17696;SDS011;8967;47.984;7.842;2023-05-07T00:58:23;4.95;;;2.45;;
17696;SDS011;8967;47.984;7.842;2023-05-07T01:00:50;6.22;;;2.53;;
17696;SDS011;8967;47.984;7.842;2023-05-07T01:03:17;2.97;;;2.22;;
17696;SDS011;8967;47.984;7.842;2023-05-07T01:05:45;5.55;;;2.35;;
17696;SDS011;8967;47.984;7.842;2023-05-07T01:08:14;2.47;;;1.85;;
17696;SDS011;8967;47.984;7.842;2023-05-07T01:10:43;3.67;;;2.13;;
17696;SDS011;8967;47.984;7.842;2023-05-07T01:13:12;8.80;;;2.38;;
17696;SDS011;8967;47.984;7.842;2023-05-07T01:15:40;3.33;;;2.42;;
17696;SDS011;8967;47.984;7.842;2023-05-07T01:18:08;2.65;;;2.08;;
17696;SDS011;8967;47.984;7.842;2023-05-07T01:20:36;3.53;;;2.30;;
17696;SDS011;8967;47.984;7.842;2023-05-07T01:23:04;4.68;;;2.53;;
17696;SDS011;8967;47.984;7.842;2023-05-07T01:25:32;3.88;;;2.10;;
17696;SDS011;8967;47.984;7.842;2023-05-07T01:28:00;2.35;;;2.00;;
17696;SDS011;8967;47.984;7.842;2023-05-07T01:30:30;4.50;;;2.60;;
17696;SDS011;8967;47.984;7.842;2023-05-07T01:33:04;2.42;;;2.15;;
17696;SDS011;8967;47.984;7.842;2023-05-07T01:35:35;3.15;;;2.20;;
17696;SDS011;8967;47.984;7.842;2023-05-07T01:38:06;2.33;;;1.98;;
17696;SDS011;8967;47.984;7.842;2023-05-07T01:40:34;3.85;;;1.90;;
17696;SDS011;8967;47.984;7.842;2023-05-07T01:43:01;3.03;;;2.10;;
17696;SDS011;8967;47.984;7.842;2023-05-07T01:45:30;5.20;;;1.90;;
17696;SDS011;8967;47.984;7.842;2023-05-07T01:47:57;3.08;;;2.00;;
17696;SDS011;8967;47.984;7.842;2023-05-07T01:50:25;3.03;;;1.85;;
17696;SDS011;8967;47.984;7.842;2023-05-07T01:52:53;3.72;;;1.80;;
17696;SDS011;8967;47.984;7.842;2023-05-07T01:55:21;7.80;;;1.95;;
17696;SDS011;8967;47.984;7.842;2023-05-07T01:57:48;4.43;;;1.73;;
17696;SDS011;8967;47.984;7.842;2023-05-07T02:00:16;3.17;;;1.90;;
17696;SDS011;8967;47.984;7.842;2023-05-07T02:02:44;3.80;;;2.20;;
17696;SDS011;8967;47.984;7.842;2023-05-07T02:05:23;2.47;;;2.00;;
17696;SDS011;8967;47.984;7.842;2023-05-07T02:07:59;3.13;;;1.95;;
17696;SDS011;8967;47.984;7.842;2023-05-07T02:10:29;4.22;;;2.05;;
17696;SDS011;8967;47.984;7.842;2023-05-07T02:12:56;6.15;;;1.90;;
17696;SDS011;8967;47.984;7.842;2023-05-07T02:15:23;2.20;;;2.00;;
17696;SDS011;8967;47.984;7.842;2023-05-07T02:17:57;3.50;;;2.22;;
17696;SDS011;8967;47.984;7.842;2023-05-07T02:20:27;1.95;;;1.85;;
17696;SDS011;8967;47.984;7.842;2023-05-07T02:22:55;3.35;;;1.88;;
17696;SDS011;8967;47.984;7.842;2023-05-07T02:25:24;2.58;;;2.22;;
17696;SDS011;8967;47.984;7.842;2023-05-07T02:27:53;3.03;;;2.25;;
17696;SDS011;8967;47.984;7.842;2023-05-07T02:30:24;3.92;;;2.38;;
17696;SDS011;8967;47.984;7.842;2023-05-07T02:32:52;2.45;;;2.17;;
17696;SDS011;8967;47.984;7.842;2023-05-07T02:35:20;2.22;;;2.03;;
17696;SDS011;8967;47.984;7.842;2023-05-07T02:37:49;3.92;;;2.22;;
17696;SDS011;8967;47.984;7.842;2023-05-07T02:40:16;4.82;;;2.65;;
17696;SDS011;8967;47.984;7.842;2023-05-07T02:42:43;3.28;;;2.20;;
17696;SDS011;8967;47.984;7.842;2023-05-07T02:45:11;5.30;;;2.40;;
17696;SDS011;8967;47.984;7.842;2023-05-07T02:47:40;3.75;;;2.00;;
17696;SDS011;8967;47.984;7.842;2023-05-07T02:50:07;3.67;;;1.92;;
17696;SDS011;8967;47.984;7.842;2023-05-07T02:52:34;4.18;;;2.10;;
17696;SDS011;8967;47.984;7.842;2023-05-07T02:55:01;4.32;;;2.20;;
17696;SDS011;8967;47.984;7.842;2023-05-07T02:57:28;4.00;;;2.22;;
17696;SDS011;8967;47.984;7.842;2023-05-07T02:59:55;4.95;;;2.45;;
17696;SDS011;8967;47.984;7.842;2023-05-07T03:02:25;3.70;;;2.10;;
17696;SDS011;8967;47.984;7.842;2023-05-07T03:04:52;2.95;;;2.38;;
17696;SDS011;8967;47.984;7.842;2023-05-07T03:07:21;6.20;;;2.42;;
17696;SDS011;8967;47.984;7.842;2023-05-07T03:09:48;2.78;;;2.25;;
17696;SDS011;8967;47.984;7.842;2023-05-07T03:12:15;2.95;;;2.38;;
17696;SDS011;8967;47.984;7.842;2023-05-07T03:14:42;2.25;;;2.00;;
17696;SDS011;8967;47.984;7.842;2023-05-07T03:17:11;5.07;;;2.15;;
17696;SDS011;8967;47.984;7.842;2023-05-07T03:19:39;1.77;;;1.67;;
17696;SDS011;8967;47.984;7.842;2023-05-07T03:22:09;2.50;;;2.00;;
17696;SDS011;8967;47.984;7.842;2023-05-07T03:24:35;2.80;;;1.88;;
17696;SDS011;8967;47.984;7.842;2023-05-07T03:27:05;3.55;;;1.98;;
17696;SDS011;8967;47.984;7.842;2023-05-07T03:29:32;3.97;;;2.15;;
17696;SDS011;8967;47.984;7.842;2023-05-07T03:31:58;4.45;;;1.98;;
17696;SDS011;8967;47.984;7.842;2023-05-07T03:34:26;3.05;;;2.10;;
17696;SDS011;8967;47.984;7.842;2023-05-07T03:36:55;6.60;;;2.72;;
17696;SDS011;8967;47.984;7.842;2023-05-07T03:39:23;2.03;;;1.83;;
17696;SDS011;8967;47.984;7.842;2023-05-07T03:41:50;3.25;;;2.10;;
17696;SDS011;8967;47.984;7.842;2023-05-07T03:44:17;6.18;;;2.20;;
17696;SDS011;8967;47.984;7.842;2023-05-07T03:46:44;2.33;;;2.10;;
17696;SDS011;8967;47.984;7.842;2023-05-07T03:49:11;3.55;;;2.20;;
17696;SDS011;8967;47.984;7.842;2023-05-07T03:51:38;4.35;;;2.30;;
17696;SDS011;8967;47.984;7.842;2023-05-07T03:54:08;2.53;;;2.33;;
17696;SDS011;8967;47.984;7.842;2023-05-07T03:56:38;4.75;;;2.17;;
17696;SDS011;8967;47.984;7.842;2023-05-07T03:59:07;3.33;;;2.00;;
17696;SDS011;8967;47.984;7.842;2023-05-07T04:01:35;3.13;;;2.20;;
17696;SDS011;8967;47.984;7.842;2023-05-07T04:04:02;6.70;;;2.40;;
17696;SDS011;8967;47.984;7.842;2023-05-07T04:06:29;5.78;;;2.00;;
17696;SDS011;8967;47.984;7.842;2023-05-07T04:08:57;2.35;;;1.73;;
17696;SDS011;8967;47.984;7.842;2023-05-07T04:11:26;2.70;;;2.00;;
17696;SDS011;8967;47.984;7.842;2023-05-07T04:13:54;2.13;;;2.00;;
17696;SDS011;8967;47.984;7.842;2023-05-07T04:16:22;2.42;;;2.22;;
17696;SDS011;8967;47.984;7.842;2023-05-07T04:18:49;5.90;;;2.88;;
17696;SDS011;8967;47.984;7.842;2023-05-07T04:21:17;2.83;;;2.20;;
17696;SDS011;8967;47.984;7.842;2023-05-07T04:23:45;4.90;;;2.00;;
17696;SDS011;8967;47.984;7.842;2023-05-07T04:26:13;4.80;;;2.10;;
17696;SDS011;8967;47.984;7.842;2023-05-07T04:28:44;3.20;;;2.55;;
17696;SDS011;8967;47.984;7.842;2023-05-07T04:31:14;3.75;;;2.28;;
17696;SDS011;8967;47.984;7.842;2023-05-07T04:33:47;3.33;;;1.85;;
17696;SDS011;8967;47.984;7.842;2023-05-07T04:36:14;5.50;;;2.28;;
17696;SDS011;8967;47.984;7.842;2023-05-07T04:38:50;3.78;;;2.30;;
17696;SDS011;8967;47.984;7.842;2023-05-07T04:41:18;3.38;;;2.40;;
17696;SDS011;8967;47.984;7.842;2023-05-07T04:43:47;2.30;;;2.10;;
17696;SDS011;8967;47.984;7.842;2023-05-07T04:46:15;5.15;;;2.40;;
17696;SDS011;8967;47.984;7.842;2023-05-07T04:48:46;2.58;;;2.25;;
17696;SDS011;8967;47.984;7.842;2023-05-07T04:51:13;3.40;;;2.17;;
17696;SDS011;8967;47.984;7.842;2023-05-07T04:53:40;2.75;;;2.30;;
17696;SDS011;8967;47.984;7.842;2023-05-07T04:56:08;3.30;;;2.38;;
17696;SDS011;8967;47.984;7.842;2023-05-07T04:58:41;3.15;;;2.60;;
17696;SDS011;8967;47.984;7.842;2023-05-07T05:01:10;4.93;;;2.47;;
17696;SDS011;8967;47.984;7.842;2023-05-07T05:03:38;3.47;;;2.45;;
17696;SDS011;8967;47.984;7.842;2023-05-07T05:06:06;6.53;;;2.10;;
17696;SDS011;8967;47.984;7.842;2023-05-07T05:08:33;4.15;;;2.20;;
17696;SDS011;8967;47.984;7.842;2023-05-07T05:11:03;5.07;;;2.20;;
17696;SDS011;8967;47.984;7.842;2023-05-07T05:13:32;2.88;;;2.20;;
17696;SDS011;8967;47.984;7.842;2023-05-07T05:16:04;2.92;;;2.47;;
17696;SDS011;8967;47.984;7.842;2023-05-07T05:18:33;4.30;;;2.15;;
17696;SDS011;8967;47.984;7.842;2023-05-07T05:21:00;5.82;;;2.50;;
17696;SDS011;8967;47.984;7.842;2023-05-07T05:23:28;4.00;;;2.55;;
17696;SDS011;8967;47.984;7.842;2023-05-07T05:25:55;5.07;;;2.35;;
17696;SDS011;8967;47.984;7.842;2023-05-07T05:28:25;2.50;;;2.15;;
17696;SDS011;8967;47.984;7.842;2023-05-07T05:30:53;4.80;;;2.15;;
17696;SDS011;8967;47.984;7.842;2023-05-07T05:33:21;2.70;;;2.20;;
17696;SDS011;8967;47.984;7.842;2023-05-07T05:35:53;3.95;;;2.30;;
17696;SDS011;8967;47.984;7.842;2023-05-07T05:38:20;2.42;;;2.00;;
17696;SDS011;8967;47.984;7.842;2023-05-07T05:40:47;7.35;;;2.50;;
17696;SDS011;8967;47.984;7.842;2023-05-07T05:43:14;4.57;;;2.30;;
17696;SDS011;8967;47.984;7.842;2023-05-07T05:45:42;3.30;;;2.25;;
17696;SDS011;8967;47.984;7.842;2023-05-07T05:48:09;2.58;;;2.20;;
17696;SDS011;8967;47.984;7.842;2023-05-07T05:50:37;3.88;;;2.42;;
17696;SDS011;8967;47.984;7.842;2023-05-07T05:53:08;3.17;;;2.42;;
17696;SDS011;8967;47.984;7.842;2023-05-07T05:55:35;3.05;;;2.13;;
17696;SDS011;8967;47.984;7.842;2023-05-07T05:58:02;3.00;;;2.40;;
17696;SDS011;8967;47.984;7.842;2023-05-07T06:00:32;5.53;;;2.38;;
17696;SDS011;8967;47.984;7.842;2023-05-07T06:03:02;3.15;;;1.80;;
17696;SDS011;8967;47.984;7.842;2023-05-07T06:05:29;2.93;;;2.20;;
17696;SDS011;8967;47.984;7.842;2023-05-07T06:07:57;4.13;;;1.98;;
17696;SDS011;8967;47.984;7.842;2023-05-07T06:10:27;3.33;;;2.00;;
17696;SDS011;8967;47.984;7.842;2023-05-07T06:12:55;3.33;;;2.45;;
17696;SDS011;8967;47.984;7.842;2023-05-07T06:15:22;4.40;;;2.55;;
17696;SDS011;8967;47.984;7.842;2023-05-07T06:17:49;5.18;;;2.47;;
17696;SDS011;8967;47.984;7.842;2023-05-07T06:20:19;4.50;;;2.83;;
17696;SDS011;8967;47.984;7.842;2023-05-07T06:22:46;7.15;;;2.67;;
17696;SDS011;8967;47.984;7.842;2023-05-07T06:25:16;4.15;;;2.55;;
17696;SDS011;8967;47.984;7.842;2023-05-07T06:27:44;2.95;;;2.30;;
17696;SDS011;8967;47.984;7.842;2023-05-07T06:30:13;5.18;;;2.60;;
17696;SDS011;8967;47.984;7.842;2023-05-07T06:32:41;4.30;;;2.67;;
17696;SDS011;8967;47.984;7.842;2023-05-07T06:35:08;4.75;;;2.95;;
17696;SDS011;8967;47.984;7.842;2023-05-07T06:37:37;5.85;;;2.67;;
17696;SDS011;8967;47.984;7.842;2023-05-07T06:40:06;6.20;;;3.03;;
17696;SDS011;8967;47.984;7.842;2023-05-07T06:42:37;3.92;;;2.90;;
17696;SDS011;8967;47.984;7.842;2023-05-07T06:45:24;5.63;;;2.97;;
17696;SDS011;8967;47.984;7.842;2023-05-07T06:47:53;6.28;;;3.17;;
17696;SDS011;8967;47.984;7.842;2023-05-07T06:50:21;3.13;;;2.83;;
17696;SDS011;8967;47.984;7.842;2023-05-07T06:52:51;5.68;;;2.88;;
17696;SDS011;8967;47.984;7.842;2023-05-07T06:55:18;4.30;;;3.40;;
17696;SDS011;8967;47.984;7.842;2023-05-07T06:57:45;3.35;;;3.05;;
17696;SDS011;8967;47.984;7.842;2023-05-07T07:00:14;6.28;;;3.40;;
17696;SDS011;8967;47.984;7.842;2023-05-07T07:02:53;4.40;;;3.38;;
17696;SDS011;8967;47.984;7.842;2023-05-07T07:05:23;3.85;;;3.00;;
17696;SDS011;8967;47.984;7.842;2023-05-07T07:07:51;2.72;;;2.53;;
17696;SDS011;8967;47.984;7.842;2023-05-07T07:10:18;8.40;;;3.03;;
17696;SDS011;8967;47.984;7.842;2023-05-07T07:12:49;4.50;;;2.70;;
17696;SDS011;8967;47.984;7.842;2023-05-07T07:15:19;5.68;;;3.10;;
17696;SDS011;8967;47.984;7.842;2023-05-07T07:17:49;6.03;;;3.17;;
17696;SDS011;8967;47.984;7.842;2023-05-07T07:20:17;3.45;;;3.15;;
17696;SDS011;8967;47.984;7.842;2023-05-07T07:22:47;5.10;;;3.28;;
17696;SDS011;8967;47.984;7.842;2023-05-07T07:25:15;4.70;;;3.40;;
17696;SDS011;8967;47.984;7.842;2023-05-07T07:27:43;5.47;;;3.08;;
17696;SDS011;8967;47.984;7.842;2023-05-07T07:30:11;4.45;;;2.90;;
17696;SDS011;8967;47.984;7.842;2023-05-07T07:32:40;3.65;;;3.05;;
17696;SDS011;8967;47.984;7.842;2023-05-07T07:35:08;6.43;;;3.10;;
17696;SDS011;8967;47.984;7.842;2023-05-07T07:37:37;3.58;;;3.22;;
17696;SDS011;8967;47.984;7.842;2023-05-07T07:40:07;3.53;;;2.60;;
17696;SDS011;8967;47.984;7.842;2023-05-07T07:42:36;5.97;;;3.05;;
17696;SDS011;8967;47.984;7.842;2023-05-07T07:45:03;7.05;;;3.20;;
17696;SDS011;8967;47.984;7.842;2023-05-07T07:47:34;3.92;;;3.10;;
17696;SDS011;8967;47.984;7.842;2023-05-07T07:50:01;4.13;;;2.83;;
17696;SDS011;8967;47.984;7.842;2023-05-07T07:52:28;3.28;;;2.97;;
17696;SDS011;8967;47.984;7.842;2023-05-07T07:54:57;6.25;;;3.60;;
17696;SDS011;8967;47.984;7.842;2023-05-07T07:57:24;6.10;;;3.30;;
17696;SDS011;8967;47.984;7.842;2023-05-07T07:59:51;5.53;;;3.45;;
17696;SDS011;8967;47.984;7.842;2023-05-07T08:02:19;3.97;;;3.22;;
17696;SDS011;8967;47.984;7.842;2023-05-07T08:04:47;5.28;;;3.92;;
17696;SDS011;8967;47.984;7.842;2023-05-07T08:07:14;6.20;;;3.80;;
17696;SDS011;8967;47.984;7.842;2023-05-07T08:09:45;7.45;;;3.78;;
17696;SDS011;8967;47.984;7.842;2023-05-07T08:12:14;6.72;;;3.00;;
17696;SDS011;8967;47.984;7.842;2023-05-07T08:14:41;5.60;;;4.10;;
17696;SDS011;8967;47.984;7.842;2023-05-07T08:17:09;5.15;;;3.75;;
17696;SDS011;8967;47.984;7.842;2023-05-07T08:19:37;4.18;;;3.15;;
17696;SDS011;8967;47.984;7.842;2023-05-07T08:22:06;4.03;;;3.40;;
17696;SDS011;8967;47.984;7.842;2023-05-07T08:24:33;5.75;;;3.15;;
17696;SDS011;8967;47.984;7.842;2023-05-07T08:27:00;4.45;;;2.80;;
17696;SDS011;8967;47.984;7.842;2023-05-07T08:29:29;6.35;;;3.80;;
17696;SDS011;8967;47.984;7.842;2023-05-07T08:31:56;5.15;;;3.88;;
17696;SDS011;8967;47.984;7.842;2023-05-07T08:34:25;10.60;;;3.25;;
17696;SDS011;8967;47.984;7.842;2023-05-07T08:36:54;3.10;;;2.70;;
17696;SDS011;8967;47.984;7.842;2023-05-07T08:39:23;5.78;;;2.60;;
17696;SDS011;8967;47.984;7.842;2023-05-07T08:41:54;6.10;;;2.97;;
17696;SDS011;8967;47.984;7.842;2023-05-07T08:44:23;4.50;;;2.65;;
17696;SDS011;8967;47.984;7.842;2023-05-07T08:46:56;3.17;;;2.85;;
17696;SDS011;8967;47.984;7.842;2023-05-07T08:49:28;4.90;;;3.13;;
17696;SDS011;8967;47.984;7.842;2023-05-07T08:51:56;3.38;;;3.08;;
17696;SDS011;8967;47.984;7.842;2023-05-07T08:54:23;5.82;;;2.95;;
17696;SDS011;8967;47.984;7.842;2023-05-07T08:56:52;3.40;;;3.10;;
17696;SDS011;8967;47.984;7.842;2023-05-07T08:59:19;3.60;;;2.85;;
17696;SDS011;8967;47.984;7.842;2023-05-07T09:01:46;5.47;;;3.08;;
17696;SDS011;8967;47.984;7.842;2023-05-07T09:04:15;5.28;;;3.15;;
17696;SDS011;8967;47.984;7.842;2023-05-07T09:06:43;3.47;;;2.80;;
17696;SDS011;8967;47.984;7.842;2023-05-07T09:09:14;4.78;;;3.33;;
17696;SDS011;8967;47.984;7.842;2023-05-07T09:11:43;3.63;;;3.22;;
17696;SDS011;8967;47.984;7.842;2023-05-07T09:14:12;8.13;;;3.13;;
17696;SDS011;8967;47.984;7.842;2023-05-07T09:16:42;5.88;;;3.47;;
17696;SDS011;8967;47.984;7.842;2023-05-07T09:19:09;3.50;;;3.20;;
17696;SDS011;8967;47.984;7.842;2023-05-07T09:21:43;6.22;;;4.00;;
17696;SDS011;8967;47.984;7.842;2023-05-07T09:24:11;7.15;;;4.40;;
17696;SDS011;8967;47.984;7.842;2023-05-07T09:26:42;4.97;;;3.80;;
17696;SDS011;8967;47.984;7.842;2023-05-07T09:29:10;7.15;;;3.20;;
17696;SDS011;8967;47.984;7.842;2023-05-07T09:31:38;3.45;;;3.10;;
17696;SDS011;8967;47.984;7.842;2023-05-07T09:34:08;4.88;;;2.70;;
17696;SDS011;8967;47.984;7.842;2023-05-07T09:36:37;4.65;;;2.95;;
17696;SDS011;8967;47.984;7.842;2023-05-07T09:39:06;3.10;;;2.80;;
17696;SDS011;8967;47.984;7.842;2023-05-07T09:41:42;2.70;;;2.50;;
17696;SDS011;8967;47.984;7.842;2023-05-07T09:44:15;4.28;;;2.70;;
17696;SDS011;8967;47.984;7.842;2023-05-07T09:46:47;2.90;;;2.65;;
17696;SDS011;8967;47.984;7.842;2023-05-07T09:49:24;3.05;;;2.60;;
17696;SDS011;8967;47.984;7.842;2023-05-07T09:52:00;3.17;;;2.70;;
17696;SDS011;8967;47.984;7.842;2023-05-07T09:54:33;3.20;;;2.58;;
17696;SDS011;8967;47.984;7.842;2023-05-07T09:57:03;5.63;;;2.60;;
17696;SDS011;8967;47.984;7.842;2023-05-07T09:59:32;5.35;;;3.03;;
17696;SDS011;8967;47.984;7.842;2023-05-07T10:02:04;4.72;;;2.92;;
17696;SDS011;8967;47.984;7.842;2023-05-07T10:04:37;3.53;;;2.85;;
17696;SDS011;8967;47.984;7.842;2023-05-07T10:07:06;5.13;;;2.63;;
17696;SDS011;8967;47.984;7.842;2023-05-07T10:09:37;6.25;;;3.25;;
17696;SDS011;8967;47.984;7.842;2023-05-07T10:12:12;2.92;;;2.63;;
17696;SDS011;8967;47.984;7.842;2023-05-07T10:14:40;3.38;;;2.47;;
17696;SDS011;8967;47.984;7.842;2023-05-07T10:17:07;3.95;;;2.60;;
17696;SDS011;8967;47.984;7.842;2023-05-07T10:19:37;6.72;;;2.72;;
17696;SDS011;8967;47.984;7.842;2023-05-07T10:22:05;4.15;;;2.72;;
17696;SDS011;8967;47.984;7.842;2023-05-07T10:24:38;4.45;;;2.78;;
17696;SDS011;8967;47.984;7.842;2023-05-07T10:27:12;12.00;;;3.63;;
17696;SDS011;8967;47.984;7.842;2023-05-07T10:29:45;8.90;;;3.50;;
17696;SDS011;8967;47.984;7.842;2023-05-07T10:32:30;11.70;;;3.72;;
17696;SDS011;8967;47.984;7.842;2023-05-07T10:35:03;5.85;;;3.33;;
17696;SDS011;8967;47.984;7.842;2023-05-07T10:37:35;10.52;;;3.60;;
17696;SDS011;8967;47.984;7.842;2023-05-07T10:40:26;15.80;;;3.83;;
17696;SDS011;8967;47.984;7.842;2023-05-07T10:42:55;4.07;;;3.20;;
17696;SDS011;8967;47.984;7.842;2023-05-07T10:45:26;4.00;;;3.30;;
17696;SDS011;8967;47.984;7.842;2023-05-07T10:48:06;2.90;;;2.70;;
17696;SDS011;8967;47.984;7.842;2023-05-07T10:50:35;4.18;;;3.03;;
17696;SDS011;8967;47.984;7.842;2023-05-07T10:53:23;8.88;;;3.63;;
17696;SDS011;8967;47.984;7.842;2023-05-07T11:02:01;3.83;;;3.45;;
17696;SDS011;8967;47.984;7.842;2023-05-07T11:07:53;8.25;;;3.40;;
17696;SDS011;8967;47.984;7.842;2023-05-07T11:10:21;6.53;;;3.58;;
17696;SDS011;8967;47.984;7.842;2023-05-07T11:13:00;5.38;;;3.53;;
17696;SDS011;8967;47.984;7.842;2023-05-07T11:15:37;6.05;;;3.45;;
17696;SDS011;8967;47.984;7.842;2023-05-07T11:18:42;6.68;;;3.83;;
17696;SDS011;8967;47.984;7.842;2023-05-07T11:21:14;5.50;;;3.47;;
17696;SDS011;8967;47.984;7.842;2023-05-07T11:24:06;4.30;;;2.92;;
17696;SDS011;8967;47.984;7.842;2023-05-07T11:26:53;10.30;;;3.40;;
17696;SDS011;8967;47.984;7.842;2023-05-07T11:29:24;3.45;;;3.03;;
17696;SDS011;8967;47.984;7.842;2023-05-07T11:32:01;6.47;;;3.65;;
17696;SDS011;8967;47.984;7.842;2023-05-07T11:34:33;4.45;;;2.92;;
17696;SDS011;8967;47.984;7.842;2023-05-07T11:37:01;6.70;;;3.03;;
17696;SDS011;8967;47.984;7.842;2023-05-07T11:39:42;6.38;;;2.67;;
17696;SDS011;8967;47.984;7.842;2023-05-07T11:44:55;5.88;;;2.95;;
17696;SDS011;8967;47.984;7.842;2023-05-07T11:47:22;7.22;;;3.17;;
17696;SDS011;8967;47.984;7.842;2023-05-07T11:49:51;3.67;;;2.85;;
17696;SDS011;8967;47.984;7.842;2023-05-07T11:52:19;4.28;;;3.35;;
17696;SDS011;8967;47.984;7.842;2023-05-07T11:54:48;4.50;;;3.03;;
17696;SDS011;8967;47.984;7.842;2023-05-07T11:57:15;3.30;;;2.50;;
17696;SDS011;8967;47.984;7.842;2023-05-07T11:59:42;3.83;;;2.70;;
17696;SDS011;8967;47.984;7.842;2023-05-07T12:02:13;4.50;;;2.88;;
17696;SDS011;8967;47.984;7.842;2023-05-07T12:04:40;3.47;;;2.85;;
17696;SDS011;8967;47.984;7.842;2023-05-07T12:07:10;3.38;;;3.03;;
17696;SDS011;8967;47.984;7.842;2023-05-07T12:09:38;3.70;;;2.88;;
17696;SDS011;8967;47.984;7.842;2023-05-07T12:12:06;3.40;;;2.92;;
17696;SDS011;8967;47.984;7.842;2023-05-07T12:14:37;3.35;;;2.95;;
17696;SDS011;8967;47.984;7.842;2023-05-07T12:17:06;6.70;;;3.47;;
17696;SDS011;8967;47.984;7.842;2023-05-07T12:19:35;3.42;;;3.03;;
17696;SDS011;8967;47.984;7.842;2023-05-07T12:22:03;4.13;;;3.00;;
17696;SDS011;8967;47.984;7.842;2023-05-07T12:24:41;2.90;;;2.70;;
17696;SDS011;8967;47.984;7.842;2023-05-07T12:27:11;4.75;;;3.53;;
17696;SDS011;8967;47.984;7.842;2023-05-07T12:29:39;5.45;;;3.97;;
17696;SDS011;8967;47.984;7.842;2023-05-07T12:32:12;3.50;;;3.13;;
17696;SDS011;8967;47.984;7.842;2023-05-07T12:34:41;4.00;;;2.80;;
17696;SDS011;8967;47.984;7.842;2023-05-07T12:37:08;3.45;;;2.55;;
17696;SDS011;8967;47.984;7.842;2023-05-07T12:39:35;2.97;;;2.58;;
17696;SDS011;8967;47.984;7.842;2023-05-07T12:42:02;4.03;;;2.90;;
17696;SDS011;8967;47.984;7.842;2023-05-07T12:44:29;3.13;;;2.83;;
17696;SDS011;8967;47.984;7.842;2023-05-07T12:46:58;3.72;;;3.00;;
17696;SDS011;8967;47.984;7.842;2023-05-07T12:49:27;5.05;;;3.30;;
17696;SDS011;8967;47.984;7.842;2023-05-07T12:51:55;4.88;;;3.33;;
17696;SDS011;8967;47.984;7.842;2023-05-07T12:54:28;3.85;;;3.05;;
17696;SDS011;8967;47.984;7.842;2023-05-07T12:57:02;3.88;;;2.80;;
17696;SDS011;8967;47.984;7.842;2023-05-07T12:59:31;4.05;;;2.70;;
17696;SDS011;8967;47.984;7.842;2023-05-07T13:01:58;6.20;;;2.75;;
17696;SDS011;8967;47.984;7.842;2023-05-07T13:04:25;2.67;;;2.47;;
17696;SDS011;8967;47.984;7.842;2023-05-07T13:06:52;3.45;;;2.40;;
17696;SDS011;8967;47.984;7.842;2023-05-07T13:09:20;4.65;;;2.70;;
17696;SDS011;8967;47.984;7.842;2023-05-07T13:11:47;4.45;;;2.30;;
17696;SDS011;8967;47.984;7.842;2023-05-07T13:14:14;5.22;;;2.65;;
17696;SDS011;8967;47.984;7.842;2023-05-07T13:16:41;3.20;;;2.55;;
17696;SDS011;8967;47.984;7.842;2023-05-07T13:19:08;6.07;;;3.00;;
17696;SDS011;8967;47.984;7.842;2023-05-07T13:21:36;3.50;;;2.83;;
17696;SDS011;8967;47.984;7.842;2023-05-07T13:24:03;3.72;;;2.90;;
17696;SDS011;8967;47.984;7.842;2023-05-07T13:26:31;2.85;;;2.55;;
17696;SDS011;8967;47.984;7.842;2023-05-07T13:28:58;3.92;;;2.50;;
17696;SDS011;8967;47.984;7.842;2023-05-07T13:31:27;3.92;;;2.85;;
17696;SDS011;8967;47.984;7.842;2023-05-07T13:33:55;2.78;;;2.30;;
17696;SDS011;8967;47.984;7.842;2023-05-07T13:36:24;3.55;;;2.72;;
17696;SDS011;8967;47.984;7.842;2023-05-07T13:38:54;4.57;;;2.53;;
17696;SDS011;8967;47.984;7.842;2023-05-07T13:41:21;4.82;;;2.70;;
17696;SDS011;8967;47.984;7.842;2023-05-07T13:43:51;2.88;;;2.58;;
17696;SDS011;8967;47.984;7.842;2023-05-07T13:46:18;3.90;;;3.33;;
17696;SDS011;8967;47.984;7.842;2023-05-07T13:48:45;3.50;;;2.65;;
17696;SDS011;8967;47.984;7.842;2023-05-07T13:51:14;5.75;;;3.42;;
17696;SDS011;8967;47.984;7.842;2023-05-07T13:53:42;3.30;;;3.00;;
17696;SDS011;8967;47.984;7.842;2023-05-07T13:56:09;5.97;;;3.85;;
17696;SDS011;8967;47.984;7.842;2023-05-07T13:58:35;3.38;;;3.08;;
17696;SDS011;8967;47.984;7.842;2023-05-07T14:01:04;5.57;;;3.47;;
17696;SDS011;8967;47.984;7.842;2023-05-07T14:03:31;4.72;;;3.03;;
17696;SDS011;8967;47.984;7.842;2023-05-07T14:05:58;6.78;;;3.47;;
17696;SDS011;8967;47.984;7.842;2023-05-07T14:08:26;4.50;;;3.30;;
17696;SDS011;8967;47.984;7.842;2023-05-07T14:10:53;4.25;;;3.45;;
17696;SDS011;8967;47.984;7.842;2023-05-07T14:13:20;3.95;;;3.40;;
17696;SDS011;8967;47.984;7.842;2023-05-07T14:15:47;5.10;;;3.47;;
17696;SDS011;8967;47.984;7.842;2023-05-07T14:18:16;6.53;;;3.65;;
17696;SDS011;8967;47.984;7.842;2023-05-07T14:20:42;3.58;;;2.95;;
17696;SDS011;8967;47.984;7.842;2023-05-07T14:23:11;3.83;;;3.28;;
17696;SDS011;8967;47.984;7.842;2023-05-07T14:25:38;3.30;;;2.85;;
17696;SDS011;8967;47.984;7.842;2023-05-07T14:28:06;3.65;;;3.33;;
17696;SDS011;8967;47.984;7.842;2023-05-07T14:30:32;3.35;;;2.92;;
17696;SDS011;8967;47.984;7.842;2023-05-07T14:33:00;4.30;;;2.53;;
17696;SDS011;8967;47.984;7.842;2023-05-07T14:35:28;4.75;;;2.33;;
17696;SDS011;8967;47.984;7.842;2023-05-07T14:37:55;6.45;;;3.38;;
17696;SDS011;8967;47.984;7.842;2023-05-07T14:40:22;4.88;;;2.65;;
17696;SDS011;8967;47.984;7.842;2023-05-07T14:42:49;3.05;;;2.60;;
17696;SDS011;8967;47.984;7.842;2023-05-07T14:45:18;2.80;;;2.60;;
17696;SDS011;8967;47.984;7.842;2023-05-07T14:47:45;3.38;;;2.63;;
17696;SDS011;8967;47.984;7.842;2023-05-07T14:50:12;5.40;;;2.80;;
17696;SDS011;8967;47.984;7.842;2023-05-07T14:52:40;3.13;;;2.80;;
17696;SDS011;8967;47.984;7.842;2023-05-07T14:55:07;5.55;;;2.47;;
17696;SDS011;8967;47.984;7.842;2023-05-07T14:57:34;4.30;;;2.65;;
17696;SDS011;8967;47.984;7.842;2023-05-07T15:00:01;3.00;;;2.05;;
17696;SDS011;8967;47.984;7.842;2023-05-07T15:02:32;1.90;;;1.75;;
17696;SDS011;8967;47.984;7.842;2023-05-07T15:05:02;1.55;;;1.30;;
17696;SDS011;8967;47.984;7.842;2023-05-07T15:07:30;3.30;;;1.67;;
17696;SDS011;8967;47.984;7.842;2023-05-07T15:09:59;1.60;;;1.42;;
17696;SDS011;8967;47.984;7.842;2023-05-07T15:12:25;8.50;;;1.70;;
17696;SDS011;8967;47.984;7.842;2023-05-07T15:14:52;2.25;;;1.52;;
17696;SDS011;8967;47.984;7.842;2023-05-07T15:17:22;1.10;;;1.10;;
17696;SDS011;8967;47.984;7.842;2023-05-07T15:19:51;2.22;;;1.50;;
17696;SDS011;8967;47.984;7.842;2023-05-07T15:22:18;1.95;;;1.38;;
17696;SDS011;8967;47.984;7.842;2023-05-07T15:24:46;2.00;;;1.50;;